North Sioux City, SD

10:37 PM CST on December 25, 2014 (GMT -0600)
McCook Lake SD | Change Station
CLOSE
Current Station
Personal Weather Station
Location: McCook Lake, SD
Elevation: 1114 ft
Nearby Weather Stations

Elev 1114 ft 42.54 °N, 96.51 °W | Updated 4 seconds ago

Overcast
Overcast
33.0 °F
Feels Like 29 °F
N
4.0
Wind Variable Wind from NNW
Gusts 10.0 mph

Today
High -- | Low -- °F
--% Chance of Precip.
Yesterday
High -- | Low -- °F
Precip. -- in
7:54 AM 4:58 PM
Waxing Crescent, 22% visible
Pressure 29.78 in
Visibility 10.0 miles
Clouds Overcast 5000 ft
Windchill 29 °F
Dew Point 32 °F
Humidity 95%
Rainfall 0.00 in
Snow Depth Not available.
UV 0 out of 12
Pollen .10 out of 12
Air Quality Not available.
Flu Activity Not available.
METAR KSUX 260352Z 36008KT 10SM OVC050 01/M01 A2975 RMK AO2 SLP084 T00111006

More Conditions Fewer Conditions

Pressure 29.78 in
Visibility 10.0 miles
Clouds Overcast 5000 ft
Windchill 29 °F
Dew Point 32 °F
Humidity 95%
Rainfall 0.00 in
Snow Depth Not available.
UV 0 out of 12
Pollen .10 out of 12
Air Quality Not available.
Flu Activity Not available.
METAR KSUX 260352Z 36008KT 10SM OVC050 01/M01 A2975 RMK AO2 SLP084 T00111006

More Conditions Fewer Conditions

10-Day Weather Forecast

Almanac

Astronomy

Dec. 25, 2014 Rise Set
Actual Time
Civil Twilight
Nautical Twilight
Astronomical Twilight
Moon
Length of Visible Light
Length of Day
Tomorrow will be .
, % of the Moon is Illuminated

Today's Extremes

State Highs State Lows

Community

WunderPhotos

Upload Photos

1,780,537 photos uploaded!

WunderBlogs® & News

Nearby

Air Quality

  Air Quality AQ Index Pollutant
Not available.

Snow Depth

Station Depth Elevation

Earthquake Activity

City Distance Mag. Time & Date
Minimum magnitude displayed is 2.5.

Coastal Water Temperatures

Place Temperature

Nearby Weather Stations